createdAt,value
2023-01-26T00:01:47.037Z,77.30
2023-01-26T00:04:15.002Z,77.30
2023-01-26T00:06:42.950Z,77.20
2023-01-26T00:09:14.389Z,77.20
2023-01-26T00:11:42.554Z,77.10
2023-01-26T00:14:11.763Z,77.00
2023-01-26T00:16:40.412Z,76.90
2023-01-26T00:19:08.345Z,76.90
2023-01-26T00:21:36.180Z,77.10
2023-01-26T00:24:04.967Z,77.20
2023-01-26T00:26:33.083Z,77.40
2023-01-26T00:29:04.016Z,77.20
2023-01-26T00:31:33.340Z,77.10
2023-01-26T00:34:01.237Z,77.20
2023-01-26T00:36:29.373Z,77.20
2023-01-26T00:38:57.714Z,77.20
2023-01-26T00:41:43.139Z,77.20
2023-01-26T00:44:11.048Z,77.20
2023-01-26T00:46:40.409Z,77.10
2023-01-26T00:49:08.495Z,77.10
2023-01-26T00:51:36.376Z,77.00
2023-01-26T00:54:05.420Z,77.10
2023-01-26T00:56:33.361Z,77.20
2023-01-26T00:59:01.240Z,77.20
2023-01-26T01:01:29.138Z,77.10
2023-01-26T01:03:58.347Z,77.10
2023-01-26T01:06:26.307Z,77.00
2023-01-26T01:08:54.299Z,77.10
2023-01-26T01:11:23.110Z,77.00
2023-01-26T01:13:52.460Z,77.00
2023-01-26T01:16:20.553Z,77.10
2023-01-26T01:18:48.528Z,77.00
2023-01-26T01:21:18.753Z,77.10
2023-01-26T01:23:47.409Z,77.10
2023-01-26T01:26:16.527Z,77.10
2023-01-26T01:28:45.477Z,77.00
2023-01-26T01:31:15.630Z,77.00
2023-01-26T01:33:43.640Z,77.00
2023-01-26T01:36:13.359Z,77.00
2023-01-26T01:38:43.439Z,76.90
2023-01-26T01:41:11.948Z,76.90
2023-01-26T01:43:40.120Z,76.80
2023-01-26T01:46:13.209Z,76.80
2023-01-26T01:48:48.737Z,76.90
2023-01-26T01:51:32.157Z,76.80
2023-01-26T01:54:04.467Z,76.80
2023-01-26T01:56:34.989Z,76.80
2023-01-26T01:59:05.142Z,76.70
2023-01-26T02:01:33.060Z,76.60
2023-01-26T02:04:02.890Z,76.40
2023-01-26T02:06:36.324Z,76.60
2023-01-26T02:09:06.860Z,76.80
2023-01-26T02:11:39.394Z,76.90
2023-01-26T02:14:10.671Z,76.80
2023-01-26T02:16:39.901Z,76.80
2023-01-26T02:19:21.119Z,76.90
2023-01-26T02:21:51.262Z,76.90
2023-01-26T02:24:26.314Z,76.80
2023-01-26T02:26:55.864Z,76.80
2023-01-26T02:29:24.322Z,76.80
2023-01-26T02:31:53.642Z,76.80
2023-01-26T02:34:25.112Z,76.80
2023-01-26T02:36:59.878Z,76.70
2023-01-26T02:39:42.226Z,76.80
2023-01-26T02:42:29.620Z,76.80
2023-01-26T02:44:57.783Z,76.80
2023-01-26T02:47:25.726Z,76.70
2023-01-26T02:49:52.837Z,76.70
2023-01-26T02:52:23.886Z,76.70
2023-01-26T02:55:17.514Z,76.70
2023-01-26T02:57:47.209Z,76.70
2023-01-26T03:00:17.628Z,76.70
2023-01-26T03:02:47.635Z,76.70
2023-01-26T03:05:15.864Z,76.70
2023-01-26T03:07:43.974Z,76.60
2023-01-26T03:10:13.971Z,76.60
2023-01-26T03:12:41.942Z,76.50
2023-01-26T03:15:30.253Z,76.60
2023-01-26T03:18:35.509Z,76.70
2023-01-26T03:21:22.505Z,76.70
2023-01-26T03:24:08.330Z,76.60
2023-01-26T03:26:54.338Z,76.70
2023-01-26T03:29:22.973Z,76.80
2023-01-26T03:31:53.875Z,76.80
2023-01-26T03:34:22.355Z,76.80
2023-01-26T03:36:50.533Z,76.60
2023-01-26T03:39:37.851Z,76.70
2023-01-26T03:42:24.418Z,76.80
2023-01-26T03:45:10.083Z,76.80
2023-01-26T03:47:59.255Z,76.60
2023-01-26T03:50:45.844Z,76.70
2023-01-26T03:53:33.338Z,76.80
2023-01-26T03:56:21.959Z,76.90
2023-01-26T03:58:54.316Z,76.90
2023-01-26T04:01:27.703Z,76.90
2023-01-26T04:04:17.394Z,76.80
2023-01-26T04:07:06.722Z,76.80
2023-01-26T04:09:36.950Z,76.80
2023-01-26T04:12:05.481Z,76.80
2023-01-26T04:14:54.476Z,76.90
2023-01-26T04:17:42.980Z,76.90
2023-01-26T04:20:30.972Z,77.00
2023-01-26T04:22:58.927Z,76.80
2023-01-26T04:25:26.895Z,76.90
2023-01-26T04:27:57.316Z,77.10
2023-01-26T04:30:25.414Z,77.20
2023-01-26T04:32:53.378Z,77.10
2023-01-26T04:35:22.859Z,77.20
2023-01-26T04:37:51.014Z,77.10
2023-01-26T04:40:19.314Z,77.20
2023-01-26T04:42:47.434Z,77.10
2023-01-26T04:45:15.428Z,77.10
2023-01-26T04:47:45.138Z,77.10
2023-01-26T04:50:13.964Z,77.00
2023-01-26T04:52:43.415Z,77.00
2023-01-26T04:55:11.729Z,76.90
2023-01-26T04:57:42.258Z,77.10
2023-01-26T05:00:14.017Z,77.10
2023-01-26T05:02:42.453Z,77.20
2023-01-26T05:05:11.063Z,77.20
2023-01-26T05:07:39.803Z,77.20
2023-01-26T05:10:12.601Z,77.10
2023-01-26T05:12:55.396Z,77.10
2023-01-26T05:15:35.532Z,77.20
2023-01-26T05:18:14.468Z,77.20
2023-01-26T05:20:57.956Z,77.30
2023-01-26T05:23:31.801Z,77.20
2023-01-26T05:26:19.510Z,77.20
2023-01-26T05:28:57.494Z,77.30
2023-01-26T05:31:25.467Z,77.20
2023-01-26T05:33:54.493Z,77.30
2023-01-26T05:36:24.709Z,77.20
2023-01-26T05:38:52.895Z,77.20
2023-01-26T05:41:26.981Z,77.20
2023-01-26T05:44:13.499Z,77.10
2023-01-26T05:46:48.954Z,77.10
2023-01-26T05:49:16.890Z,77.20
2023-01-26T05:51:44.930Z,77.30
2023-01-26T05:54:13.031Z,77.40
2023-01-26T05:56:42.558Z,77.40
2023-01-26T05:59:10.670Z,77.40
2023-01-26T06:01:39.302Z,77.20
2023-01-26T06:04:09.231Z,77.10
2023-01-26T06:06:44.219Z,77.20
2023-01-26T06:09:25.786Z,77.20
2023-01-26T06:12:17.260Z,77.30
2023-01-26T06:14:57.201Z,77.30
2023-01-26T06:17:31.402Z,77.30
2023-01-26T06:20:02.418Z,77.40
2023-01-26T06:22:32.374Z,77.40
2023-01-26T06:25:00.817Z,77.40
2023-01-26T06:27:30.277Z,77.40
2023-01-26T06:30:00.314Z,77.40
2023-01-26T06:32:29.432Z,77.20
2023-01-26T06:34:57.378Z,77.10
2023-01-26T06:37:26.593Z,77.30
2023-01-26T06:40:02.740Z,77.30
2023-01-26T06:42:32.034Z,77.50
2023-01-26T06:45:00.158Z,77.50
2023-01-26T06:47:28.098Z,77.40
2023-01-26T06:49:56.066Z,77.40
2023-01-26T06:52:28.313Z,77.40
2023-01-26T06:55:01.327Z,77.40
2023-01-26T06:57:54.930Z,77.20
2023-01-26T07:00:49.736Z,77.20
2023-01-26T07:03:27.959Z,77.20
2023-01-26T07:05:55.833Z,77.30
2023-01-26T07:08:23.710Z,77.30
2023-01-26T07:10:52.066Z,77.40
2023-01-26T07:13:21.531Z,77.40
2023-01-26T07:15:49.526Z,77.40
2023-01-26T07:18:17.534Z,77.50
2023-01-26T07:20:45.448Z,77.40
2023-01-26T07:23:13.336Z,77.30
2023-01-26T07:25:44.497Z,77.40
2023-01-26T07:28:13.612Z,77.50
2023-01-26T07:30:42.992Z,77.60
2023-01-26T07:33:11.087Z,77.40
2023-01-26T07:35:39.092Z,77.30
2023-01-26T07:38:07.500Z,77.40
2023-01-26T07:40:35.588Z,77.60
2023-01-26T07:43:03.593Z,77.60
2023-01-26T07:45:54.227Z,77.60
2023-01-26T07:48:23.783Z,77.70
2023-01-26T07:50:52.625Z,77.70
2023-01-26T07:53:21.315Z,77.60
2023-01-26T07:55:49.867Z,77.60
2023-01-26T07:58:19.063Z,77.60
2023-01-26T08:00:47.714Z,77.60
2023-01-26T08:03:17.047Z,77.60
2023-01-26T08:05:45.659Z,77.50
2023-01-26T08:08:13.759Z,77.60
2023-01-26T08:10:41.693Z,77.60
2023-01-26T08:13:09.579Z,77.60
2023-01-26T08:15:37.596Z,77.60
2023-01-26T08:18:05.999Z,77.40
2023-01-26T08:20:36.351Z,77.40
2023-01-26T08:23:04.251Z,77.50
2023-01-26T08:25:32.927Z,77.50
2023-01-26T08:28:00.845Z,77.50
2023-01-26T08:30:28.752Z,77.60
2023-01-26T08:32:56.652Z,77.70
2023-01-26T08:35:24.567Z,77.80
2023-01-26T08:37:53.872Z,77.80
2023-01-26T08:40:21.762Z,77.80
2023-01-26T08:42:49.690Z,77.60
2023-01-26T08:45:17.677Z,77.70
2023-01-26T08:47:46.054Z,77.80
2023-01-26T08:50:14.249Z,77.70
2023-01-26T08:52:42.347Z,77.80
2023-01-26T08:55:12.463Z,77.80
2023-01-26T08:57:40.361Z,77.80
2023-01-26T09:00:09.729Z,77.80
2023-01-26T09:02:37.930Z,77.80
2023-01-26T09:05:06.727Z,77.80
2023-01-26T09:07:34.615Z,77.60
2023-01-26T09:10:02.519Z,77.70
2023-01-26T09:12:33.847Z,77.70
2023-01-26T09:15:01.747Z,77.70
2023-01-26T09:17:29.776Z,77.80
2023-01-26T09:19:57.673Z,77.80
2023-01-26T09:22:25.653Z,77.70
2023-01-26T09:24:53.625Z,77.60
2023-01-26T09:27:21.503Z,77.50
2023-01-26T09:29:50.827Z,77.60
2023-01-26T09:32:18.988Z,77.70
2023-01-26T09:34:46.907Z,77.70
2023-01-26T09:37:14.838Z,77.80
2023-01-26T09:39:42.949Z,77.80
2023-01-26T09:42:32.114Z,77.80
2023-01-26T09:45:16.967Z,77.80
2023-01-26T09:48:00.025Z,77.80
2023-01-26T09:50:31.731Z,77.80
2023-01-26T09:53:03.755Z,77.80
2023-01-26T09:55:31.797Z,77.90
2023-01-26T09:58:03.975Z,77.70
2023-01-26T10:00:36.756Z,77.70
2023-01-26T10:03:19.833Z,77.90
2023-01-26T10:05:53.031Z,77.80
2023-01-26T10:08:43.030Z,77.90
2023-01-26T10:11:17.223Z,77.90
2023-01-26T10:13:51.424Z,77.90
2023-01-26T10:16:24.313Z,77.80
2023-01-26T10:18:57.418Z,77.80
2023-01-26T10:21:30.209Z,77.90
2023-01-26T10:24:01.592Z,77.90
2023-01-26T10:26:33.235Z,77.90
2023-01-26T10:29:02.295Z,77.80
2023-01-26T10:31:34.179Z,77.90
2023-01-26T10:34:11.113Z,77.90
2023-01-26T10:36:41.185Z,77.90
2023-01-26T10:39:10.039Z,77.80
2023-01-26T10:41:39.202Z,77.70
2023-01-26T10:44:24.526Z,77.80
2023-01-26T10:47:07.240Z,78.00
2023-01-26T10:49:35.255Z,78.00
2023-01-26T10:52:08.924Z,77.70
2023-01-26T10:54:39.593Z,77.60
2023-01-26T10:57:18.212Z,77.80
2023-01-26T10:59:52.942Z,77.90
2023-01-26T11:02:28.609Z,77.80
2023-01-26T11:05:05.724Z,77.60
2023-01-26T11:07:35.698Z,77.50
2023-01-26T11:10:20.356Z,77.50
2023-01-26T11:12:48.540Z,77.30
2023-01-26T11:15:22.018Z,77.20
2023-01-26T11:18:00.715Z,77.40
2023-01-26T11:20:45.372Z,77.20
2023-01-26T11:23:25.656Z,77.30
2023-01-26T11:26:22.057Z,77.30
2023-01-26T11:29:01.663Z,77.30
2023-01-26T11:31:41.380Z,77.20
2023-01-26T11:34:25.683Z,77.30
2023-01-26T11:37:01.072Z,77.30
2023-01-26T11:39:36.682Z,77.20
2023-01-26T11:42:20.083Z,77.20
2023-01-26T11:44:59.494Z,77.20
2023-01-26T11:47:49.094Z,77.20
2023-01-26T11:50:29.588Z,77.10
2023-01-26T11:53:31.840Z,77.00
2023-01-26T11:56:19.831Z,77.00
2023-01-26T11:58:52.608Z,76.80
2023-01-26T12:01:28.778Z,76.40
2023-01-26T12:03:57.639Z,76.20
2023-01-26T12:06:32.703Z,76.30
2023-01-26T12:09:04.229Z,76.20
2023-01-26T12:11:38.864Z,76.50
2023-01-26T12:14:21.862Z,76.70
2023-01-26T12:17:17.097Z,76.80
2023-01-26T12:19:57.218Z,76.80
2023-01-26T12:22:33.913Z,76.80
2023-01-26T12:25:19.555Z,76.80
2023-01-26T12:27:54.383Z,76.80
2023-01-26T12:30:36.275Z,76.80
2023-01-26T12:33:04.487Z,76.90
2023-01-26T12:36:02.807Z,76.80
2023-01-26T12:38:42.722Z,76.70
2023-01-26T12:41:17.027Z,76.70
2023-01-26T12:43:57.987Z,76.80
2023-01-26T12:46:29.655Z,76.60
2023-01-26T12:49:03.176Z,76.70
2023-01-26T12:51:36.111Z,76.60
2023-01-26T12:54:13.165Z,76.50
2023-01-26T12:56:45.207Z,76.50
2023-01-26T12:59:39.157Z,76.40
2023-01-26T13:02:21.509Z,76.20
2023-01-26T13:04:51.317Z,76.00
2023-01-26T13:07:32.176Z,75.90
2023-01-26T13:10:24.682Z,76.10
2023-01-26T13:12:55.504Z,76.20
2023-01-26T13:15:25.022Z,76.20
2023-01-26T13:17:58.230Z,76.40
2023-01-26T13:20:29.834Z,76.50
2023-01-26T13:22:58.347Z,76.60
2023-01-26T13:25:32.888Z,76.40
2023-01-26T13:28:02.691Z,76.50
2023-01-26T13:30:42.996Z,76.50
2023-01-26T13:33:16.433Z,76.50
2023-01-26T13:35:46.141Z,76.40
2023-01-26T13:38:25.664Z,76.40
2023-01-26T13:40:55.348Z,76.30
2023-01-26T13:43:32.044Z,76.40
2023-01-26T13:46:14.450Z,76.50
2023-01-26T13:48:45.352Z,76.40
2023-01-26T13:51:17.409Z,76.20
2023-01-26T13:53:49.872Z,76.20
2023-01-26T13:56:28.096Z,76.20
2023-01-26T13:59:08.383Z,76.20
2023-01-26T14:01:42.652Z,76.10
2023-01-26T14:04:17.685Z,76.00
2023-01-26T14:06:50.415Z,76.00
2023-01-26T14:09:19.254Z,75.80
2023-01-26T14:11:57.550Z,75.80
2023-01-26T14:14:27.818Z,75.90
2023-01-26T14:16:57.954Z,75.90
2023-01-26T14:19:26.381Z,75.70
2023-01-26T14:21:56.002Z,75.70
2023-01-26T14:24:28.364Z,75.60
2023-01-26T14:26:57.708Z,75.70
2023-01-26T14:29:29.828Z,75.90
2023-01-26T14:31:59.470Z,76.10
2023-01-26T14:34:29.275Z,76.20
2023-01-26T14:37:08.543Z,76.10
2023-01-26T14:39:36.520Z,76.30
2023-01-26T14:42:06.533Z,76.20
2023-01-26T14:44:34.512Z,76.20
2023-01-26T14:47:08.086Z,76.10
2023-01-26T14:49:46.114Z,76.20
2023-01-26T14:52:23.843Z,76.20
2023-01-26T14:54:54.233Z,76.20
2023-01-26T14:57:26.502Z,76.40
2023-01-26T14:59:56.770Z,76.20
2023-01-26T15:02:26.915Z,76.10
2023-01-26T15:05:00.006Z,75.90
2023-01-26T15:07:36.898Z,75.80
2023-01-26T15:10:21.542Z,75.90
2023-01-26T15:12:59.531Z,75.90
2023-01-26T15:15:29.651Z,75.80
2023-01-26T15:18:06.677Z,76.00
2023-01-26T15:21:00.216Z,76.10
2023-01-26T15:23:30.506Z,76.20
2023-01-26T15:26:06.004Z,76.10
2023-01-26T15:28:36.357Z,76.10
2023-01-26T15:31:04.711Z,75.90
2023-01-26T15:33:41.259Z,75.80
2023-01-26T15:36:33.056Z,76.00
2023-01-26T15:39:03.962Z,76.20
2023-01-26T15:41:32.122Z,76.30
2023-01-26T15:44:01.866Z,76.40
2023-01-26T15:46:30.033Z,76.30
2023-01-26T15:48:58.095Z,76.20
2023-01-26T15:51:26.063Z,76.20
2023-01-26T15:53:53.999Z,75.80
2023-01-26T15:56:21.998Z,75.80
2023-01-26T15:58:49.967Z,75.80
2023-01-26T16:01:22.976Z,75.70
2023-01-26T16:03:51.872Z,75.80
2023-01-26T16:06:25.186Z,75.80
2023-01-26T16:08:53.457Z,75.80
2023-01-26T16:11:22.497Z,75.70
2023-01-26T16:14:02.316Z,75.40
2023-01-26T16:16:33.488Z,75.40
2023-01-26T16:19:01.590Z,75.20
2023-01-26T16:21:33.255Z,75.30
2023-01-26T16:24:01.626Z,75.30
2023-01-26T16:26:30.875Z,75.20
2023-01-26T16:28:59.367Z,75.10
2023-01-26T16:31:31.076Z,74.90
2023-01-26T16:34:01.167Z,74.90
2023-01-26T16:36:29.185Z,74.80
2023-01-26T16:38:57.112Z,74.60
2023-01-26T16:41:27.396Z,74.50
2023-01-26T16:43:56.652Z,74.60
2023-01-26T16:46:24.838Z,74.70
2023-01-26T16:48:52.839Z,74.60
2023-01-26T16:51:26.642Z,74.30
2023-01-26T16:53:55.448Z,74.50
2023-01-26T16:56:24.631Z,74.30
2023-01-26T16:58:53.159Z,74.10
2023-01-26T17:01:23.391Z,74.00
2023-01-26T17:03:51.771Z,74.00
2023-01-26T17:06:21.782Z,73.70
2023-01-26T17:08:50.474Z,74.10
2023-01-26T17:11:20.584Z,74.10
2023-01-26T17:13:49.297Z,74.20
2023-01-26T17:16:19.194Z,74.20
2023-01-26T17:18:48.549Z,74.10
2023-01-26T17:21:18.645Z,74.10
2023-01-26T17:23:50.681Z,73.90
2023-01-26T17:26:20.157Z,73.80
2023-01-26T17:28:50.068Z,73.70
2023-01-26T17:31:20.045Z,73.50
2023-01-26T17:33:50.103Z,73.40
2023-01-26T17:36:19.700Z,73.10
2023-01-26T17:38:48.402Z,73.20
2023-01-26T17:41:18.000Z,73.30
2023-01-26T17:43:46.174Z,73.10
2023-01-26T17:46:15.981Z,73.30
2023-01-26T17:48:45.403Z,73.30
2023-01-26T17:51:16.584Z,73.00
2023-01-26T17:53:46.310Z,73.10
2023-01-26T17:56:18.612Z,73.30
2023-01-26T17:58:49.759Z,73.30
2023-01-26T18:01:18.193Z,73.30
2023-01-26T18:03:46.193Z,73.40
2023-01-26T18:06:14.246Z,73.20
2023-01-26T18:08:42.583Z,73.20
2023-01-26T18:11:13.009Z,72.90
2023-01-26T18:13:43.559Z,73.00
2023-01-26T18:16:15.932Z,73.10
2023-01-26T18:18:44.365Z,73.20
2023-01-26T18:21:14.357Z,73.10
2023-01-26T18:23:45.386Z,73.10
2023-01-26T18:26:13.413Z,73.10
2023-01-26T18:28:43.306Z,73.00
2023-01-26T18:31:12.626Z,72.80
2023-01-26T18:33:41.201Z,73.00
2023-01-26T18:36:11.968Z,72.90
2023-01-26T18:38:40.252Z,71.90
2023-01-26T18:41:12.201Z,72.20
2023-01-26T18:43:42.417Z,71.20
2023-01-26T18:46:11.747Z,72.00
2023-01-26T18:48:39.895Z,72.40
2023-01-26T18:51:08.650Z,72.90
2023-01-26T18:53:38.556Z,73.00
2023-01-26T18:56:08.710Z,73.10
2023-01-26T18:58:37.781Z,73.10
2023-01-26T19:01:10.599Z,72.70
2023-01-26T19:03:39.906Z,72.80
2023-01-26T19:06:09.022Z,72.90
2023-01-26T19:08:37.239Z,72.50
2023-01-26T19:11:05.939Z,72.40
2023-01-26T19:13:34.412Z,72.50
2023-01-26T19:16:02.528Z,72.70
2023-01-26T19:18:31.926Z,72.90
2023-01-26T19:21:01.398Z,72.80
2023-01-26T19:23:29.870Z,72.60
2023-01-26T19:25:58.125Z,72.70
2023-01-26T19:28:26.280Z,72.80
2023-01-26T19:31:03.237Z,73.00
2023-01-26T19:33:32.667Z,73.00
2023-01-26T19:36:03.681Z,73.00
2023-01-26T19:38:33.067Z,73.00
2023-01-26T19:41:02.462Z,73.00
2023-01-26T19:43:30.406Z,72.90
2023-01-26T19:45:58.514Z,72.80
2023-01-26T19:48:28.271Z,72.70
2023-01-26T19:51:03.234Z,72.70
2023-01-26T19:53:32.157Z,72.70
2023-01-26T19:56:00.903Z,72.70
2023-01-26T19:58:29.358Z,72.70
2023-01-26T20:01:01.267Z,72.60
2023-01-26T20:03:29.265Z,72.30
2023-01-26T20:05:57.370Z,72.40
2023-01-26T20:08:28.131Z,72.50
2023-01-26T20:11:02.641Z,72.60
2023-01-26T20:13:30.909Z,72.60
2023-01-26T20:15:58.892Z,72.60
2023-01-26T20:18:27.080Z,72.60
2023-01-26T20:20:56.309Z,72.50
2023-01-26T20:23:26.025Z,72.50
2023-01-26T20:26:01.006Z,72.50
2023-01-26T20:28:28.977Z,72.60
2023-01-26T20:30:59.768Z,72.50
2023-01-26T20:33:27.900Z,72.50
2023-01-26T20:35:56.386Z,72.50
2023-01-26T20:38:25.692Z,72.50
2023-01-26T20:40:53.739Z,72.50
2023-01-26T20:43:21.803Z,72.60
2023-01-26T20:45:49.916Z,72.50
2023-01-26T20:48:17.967Z,72.50
2023-01-26T20:50:45.913Z,72.50
2023-01-26T20:53:13.872Z,72.60
2023-01-26T20:55:43.440Z,72.60
2023-01-26T20:58:11.923Z,72.60
2023-01-26T21:00:39.877Z,72.60
2023-01-26T21:03:07.979Z,72.60
2023-01-26T21:05:41.999Z,72.60
2023-01-26T21:08:10.395Z,72.60
2023-01-26T21:10:38.432Z,72.60
2023-01-26T21:13:07.760Z,72.60
2023-01-26T21:15:35.794Z,72.60
2023-01-26T21:18:04.067Z,72.60
2023-01-26T21:20:32.140Z,72.60
2023-01-26T21:23:00.645Z,72.60
2023-01-26T21:25:28.687Z,72.60
2023-01-26T21:27:56.651Z,72.60
2023-01-26T21:30:25.980Z,72.60
2023-01-26T21:32:53.962Z,72.60
2023-01-26T21:35:22.090Z,72.50
2023-01-26T21:37:50.062Z,72.50
2023-01-26T21:40:18.479Z,72.50
2023-01-26T21:42:46.578Z,72.60
2023-01-26T21:45:31.979Z,72.60
2023-01-26T21:48:27.308Z,72.60
2023-01-26T21:51:13.768Z,72.60
2023-01-26T21:53:41.765Z,72.60
2023-01-26T21:56:10.090Z,72.50
2023-01-26T21:58:57.680Z,72.60
2023-01-26T22:01:26.160Z,72.60
2023-01-26T22:03:57.490Z,72.70
2023-01-26T22:06:26.064Z,72.60
2023-01-26T22:08:54.493Z,72.60
2023-01-26T22:11:22.701Z,72.70
2023-01-26T22:13:50.707Z,72.70
2023-01-26T22:16:19.127Z,72.70
2023-01-26T22:18:48.535Z,72.70
2023-01-26T22:21:18.869Z,72.60
2023-01-26T22:23:47.303Z,72.60
2023-01-26T22:26:19.445Z,72.70
2023-01-26T22:28:51.980Z,72.70
2023-01-26T22:31:22.565Z,72.70
2023-01-26T22:33:51.376Z,72.70
2023-01-26T22:36:21.350Z,72.70
2023-01-26T22:38:52.038Z,72.70
2023-01-26T22:41:22.067Z,72.70
2023-01-26T22:43:51.252Z,72.60
2023-01-26T22:46:20.408Z,72.70
2023-01-26T22:48:48.945Z,72.70
2023-01-26T22:51:19.118Z,72.70
2023-01-26T22:53:50.097Z,72.70
2023-01-26T22:56:18.668Z,72.70
2023-01-26T22:58:57.709Z,72.70
2023-01-26T23:01:26.694Z,72.80
2023-01-26T23:03:55.950Z,72.80
2023-01-26T23:06:24.743Z,72.80
2023-01-26T23:08:54.469Z,72.80
2023-01-26T23:11:24.584Z,72.80
2023-01-26T23:13:54.243Z,72.70
2023-01-26T23:16:23.569Z,72.60
2023-01-26T23:18:52.152Z,72.40
2023-01-26T23:21:20.477Z,72.30
2023-01-26T23:23:48.574Z,72.40
2023-01-26T23:26:18.120Z,72.60
2023-01-26T23:28:46.376Z,72.90
2023-01-26T23:31:16.470Z,72.90
2023-01-26T23:33:44.739Z,73.00
2023-01-26T23:36:15.148Z,73.00
2023-01-26T23:38:44.332Z,73.10
2023-01-26T23:41:12.480Z,73.10
2023-01-26T23:43:41.992Z,73.20
2023-01-26T23:46:11.594Z,73.30
2023-01-26T23:48:40.068Z,73.30
2023-01-26T23:51:10.103Z,73.30
2023-01-26T23:53:38.641Z,73.30
2023-01-26T23:56:09.684Z,73.30
2023-01-26T23:58:37.996Z,73.20
